sensor_id;sensor_type;location;lat;lon;timestamp;temperature;humidity
52947;DHT22;68773;40.400;17.260;2023-05-02T00:00:39;14.60;99.90
52947;DHT22;68773;40.400;17.260;2023-05-02T00:03:05;14.70;99.90
52947;DHT22;68773;40.400;17.260;2023-05-02T00:05:31;14.80;99.90
52947;DHT22;68773;40.400;17.260;2023-05-02T00:07:58;14.40;99.90
52947;DHT22;68773;40.400;17.260;2023-05-02T00:10:24;14.50;99.90
52947;DHT22;68773;40.400;17.260;2023-05-02T00:12:50;14.60;99.90
52947;DHT22;68773;40.400;17.260;2023-05-02T00:15:15;14.90;99.90
52947;DHT22;68773;40.400;17.260;2023-05-02T00:17:41;14.60;99.90
52947;DHT22;68773;40.400;17.260;2023-05-02T00:20:11;14.70;99.90
52947;DHT22;68773;40.400;17.260;2023-05-02T00:22:37;14.70;99.90
52947;DHT22;68773;40.400;17.260;2023-05-02T00:25:04;14.70;99.90
52947;DHT22;68773;40.400;17.260;2023-05-02T00:27:30;14.90;99.90
52947;DHT22;68773;40.400;17.260;2023-05-02T00:29:56;14.60;99.90
52947;DHT22;68773;40.400;17.260;2023-05-02T00:32:25;14.80;99.90
52947;DHT22;68773;40.400;17.260;2023-05-02T00:34:51;14.70;99.90
52947;DHT22;68773;40.400;17.260;2023-05-02T00:37:17;14.80;99.90
52947;DHT22;68773;40.400;17.260;2023-05-02T00:39:42;14.60;99.90
52947;DHT22;68773;40.400;17.260;2023-05-02T00:42:09;14.70;99.90
52947;DHT22;68773;40.400;17.260;2023-05-02T00:44:35;14.90;99.90
52947;DHT22;68773;40.400;17.260;2023-05-02T00:47:01;14.70;99.90
52947;DHT22;68773;40.400;17.260;2023-05-02T00:49:27;14.80;99.90
52947;DHT22;68773;40.400;17.260;2023-05-02T00:51:53;14.70;99.90
52947;DHT22;68773;40.400;17.260;2023-05-02T00:54:19;14.70;99.90
52947;DHT22;68773;40.400;17.260;2023-05-02T00:56:45;14.70;99.90
52947;DHT22;68773;40.400;17.260;2023-05-02T00:59:12;14.70;99.90
52947;DHT22;68773;40.400;17.260;2023-05-02T01:13:13;14.80;99.90
52947;DHT22;68773;40.400;17.260;2023-05-02T01:15:42;14.60;99.90
52947;DHT22;68773;40.400;17.260;2023-05-02T01:18:11;14.30;99.90
52947;DHT22;68773;40.400;17.260;2023-05-02T01:20:41;14.40;99.90
52947;DHT22;68773;40.400;17.260;2023-05-02T01:23:37;14.20;99.90
52947;DHT22;68773;40.400;17.260;2023-05-02T01:26:28;14.20;99.90
52947;DHT22;68773;40.400;17.260;2023-05-02T01:29:02;14.20;99.90
52947;DHT22;68773;40.400;17.260;2023-05-02T01:31:33;14.30;99.90
52947;DHT22;68773;40.400;17.260;2023-05-02T01:34:00;14.50;99.90
52947;DHT22;68773;40.400;17.260;2023-05-02T01:36:29;14.20;99.90
52947;DHT22;68773;40.400;17.260;2023-05-02T01:38:56;14.50;99.90
52947;DHT22;68773;40.400;17.260;2023-05-02T01:41:29;14.40;99.90
52947;DHT22;68773;40.400;17.260;2023-05-02T01:43:57;14.40;99.90
52947;DHT22;68773;40.400;17.260;2023-05-02T01:46:32;14.80;99.90
52947;DHT22;68773;40.400;17.260;2023-05-02T01:49:02;14.70;99.90
52947;DHT22;68773;40.400;17.260;2023-05-02T01:51:32;14.50;99.90
52947;DHT22;68773;40.400;17.260;2023-05-02T01:54:00;14.60;99.90
52947;DHT22;68773;40.400;17.260;2023-05-02T01:56:28;14.50;99.90
52947;DHT22;68773;40.400;17.260;2023-05-02T01:58:57;14.80;99.90
52947;DHT22;68773;40.400;17.260;2023-05-02T02:01:24;14.70;99.90
52947;DHT22;68773;40.400;17.260;2023-05-02T02:03:54;14.80;99.90
52947;DHT22;68773;40.400;17.260;2023-05-02T02:06:21;14.60;99.90
52947;DHT22;68773;40.400;17.260;2023-05-02T02:08:47;14.70;99.90
52947;DHT22;68773;40.400;17.260;2023-05-02T02:11:16;14.70;99.90
52947;DHT22;68773;40.400;17.260;2023-05-02T02:13:48;14.50;99.90
52947;DHT22;68773;40.400;17.260;2023-05-02T02:16:20;14.80;99.90
52947;DHT22;68773;40.400;17.260;2023-05-02T02:18:48;14.60;99.90
52947;DHT22;68773;40.400;17.260;2023-05-02T02:21:17;14.60;99.90
52947;DHT22;68773;40.400;17.260;2023-05-02T02:23:46;14.70;99.90
52947;DHT22;68773;40.400;17.260;2023-05-02T02:26:13;14.60;99.90
52947;DHT22;68773;40.400;17.260;2023-05-02T02:28:40;14.60;99.90
52947;DHT22;68773;40.400;17.260;2023-05-02T02:31:07;14.70;99.90
52947;DHT22;68773;40.400;17.260;2023-05-02T02:33:32;14.80;99.90
52947;DHT22;68773;40.400;17.260;2023-05-02T02:36:07;14.80;99.90
52947;DHT22;68773;40.400;17.260;2023-05-02T02:38:46;14.70;99.90
52947;DHT22;68773;40.400;17.260;2023-05-02T02:41:37;14.70;99.90
52947;DHT22;68773;40.400;17.260;2023-05-02T02:44:18;14.90;99.90
52947;DHT22;68773;40.400;17.260;2023-05-02T02:47:40;14.70;99.90
52947;DHT22;68773;40.400;17.260;2023-05-02T02:49:53;14.60;99.90
52947;DHT22;68773;40.400;17.260;2023-05-02T02:55:16;14.50;99.90
52947;DHT22;68773;40.400;17.260;2023-05-02T03:00:34;14.70;99.90
52947;DHT22;68773;40.400;17.260;2023-05-02T03:03:00;14.80;99.90
52947;DHT22;68773;40.400;17.260;2023-05-02T03:05:27;14.60;99.90
52947;DHT22;68773;40.400;17.260;2023-05-02T03:07:53;14.90;99.90
52947;DHT22;68773;40.400;17.260;2023-05-02T03:10:21;14.80;99.90
52947;DHT22;68773;40.400;17.260;2023-05-02T03:12:47;14.70;99.90
52947;DHT22;68773;40.400;17.260;2023-05-02T03:18:16;14.80;99.90
52947;DHT22;68773;40.400;17.260;2023-05-02T03:20:41;14.70;99.90
52947;DHT22;68773;40.400;17.260;2023-05-02T03:23:07;14.80;99.90
52947;DHT22;68773;40.400;17.260;2023-05-02T03:25:33;14.80;99.90
52947;DHT22;68773;40.400;17.260;2023-05-02T03:27:59;14.80;99.90
52947;DHT22;68773;40.400;17.260;2023-05-02T03:30:25;14.80;99.90
52947;DHT22;68773;40.400;17.260;2023-05-02T03:32:50;14.90;99.90
52947;DHT22;68773;40.400;17.260;2023-05-02T03:35:16;14.70;99.90
52947;DHT22;68773;40.400;17.260;2023-05-02T03:37:43;14.80;99.90
52947;DHT22;68773;40.400;17.260;2023-05-02T03:40:09;14.80;99.90
52947;DHT22;68773;40.400;17.260;2023-05-02T03:42:35;14.90;99.90
52947;DHT22;68773;40.400;17.260;2023-05-02T03:45:07;14.90;99.90
52947;DHT22;68773;40.400;17.260;2023-05-02T03:47:33;15.00;99.90
52947;DHT22;68773;40.400;17.260;2023-05-02T03:49:59;14.70;99.90
52947;DHT22;68773;40.400;17.260;2023-05-02T03:52:26;14.80;99.90
52947;DHT22;68773;40.400;17.260;2023-05-02T03:54:52;14.70;99.90
52947;DHT22;68773;40.400;17.260;2023-05-02T03:57:18;14.80;99.90
52947;DHT22;68773;40.400;17.260;2023-05-02T03:59:44;14.30;99.90
52947;DHT22;68773;40.400;17.260;2023-05-02T04:02:13;14.80;99.90
52947;DHT22;68773;40.400;17.260;2023-05-02T04:04:39;14.70;99.90
52947;DHT22;68773;40.400;17.260;2023-05-02T04:07:05;14.90;99.90
52947;DHT22;68773;40.400;17.260;2023-05-02T04:09:32;14.80;99.90
52947;DHT22;68773;40.400;17.260;2023-05-02T04:11:58;14.80;99.90
52947;DHT22;68773;40.400;17.260;2023-05-02T04:14:24;14.70;99.90
52947;DHT22;68773;40.400;17.260;2023-05-02T04:16:51;14.70;99.90
52947;DHT22;68773;40.400;17.260;2023-05-02T04:19:17;14.70;99.90
52947;DHT22;68773;40.400;17.260;2023-05-02T04:21:44;14.70;99.90
52947;DHT22;68773;40.400;17.260;2023-05-02T04:24:10;14.70;99.90
52947;DHT22;68773;40.400;17.260;2023-05-02T04:26:36;14.60;99.90
52947;DHT22;68773;40.400;17.260;2023-05-02T04:29:02;14.90;99.90
52947;DHT22;68773;40.400;17.260;2023-05-02T04:31:30;14.90;99.90
52947;DHT22;68773;40.400;17.260;2023-05-02T04:33:56;15.20;99.90
52947;DHT22;68773;40.400;17.260;2023-05-02T04:36:24;15.20;99.90
52947;DHT22;68773;40.400;17.260;2023-05-02T04:38:53;15.00;99.90
52947;DHT22;68773;40.400;17.260;2023-05-02T04:41:18;15.10;99.90
52947;DHT22;68773;40.400;17.260;2023-05-02T04:43:44;15.00;99.90
52947;DHT22;68773;40.400;17.260;2023-05-02T04:46:10;14.90;99.90
52947;DHT22;68773;40.400;17.260;2023-05-02T04:48:36;15.00;99.90
52947;DHT22;68773;40.400;17.260;2023-05-02T04:51:01;14.80;99.90
52947;DHT22;68773;40.400;17.260;2023-05-02T04:53:27;15.10;99.90
52947;DHT22;68773;40.400;17.260;2023-05-02T04:55:53;15.00;99.90
52947;DHT22;68773;40.400;17.260;2023-05-02T04:58:19;15.00;99.90
52947;DHT22;68773;40.400;17.260;2023-05-02T05:00:44;15.20;99.90
52947;DHT22;68773;40.400;17.260;2023-05-02T05:03:10;15.00;99.90
52947;DHT22;68773;40.400;17.260;2023-05-02T05:05:36;15.00;99.90
52947;DHT22;68773;40.400;17.260;2023-05-02T05:08:02;15.20;99.90
52947;DHT22;68773;40.400;17.260;2023-05-02T05:10:27;15.20;99.90
52947;DHT22;68773;40.400;17.260;2023-05-02T05:12:54;15.20;99.90
52947;DHT22;68773;40.400;17.260;2023-05-02T05:15:19;15.20;99.90
52947;DHT22;68773;40.400;17.260;2023-05-02T05:17:47;15.50;99.90
52947;DHT22;68773;40.400;17.260;2023-05-02T05:20:12;15.40;99.90
52947;DHT22;68773;40.400;17.260;2023-05-02T05:22:39;15.30;99.90
52947;DHT22;68773;40.400;17.260;2023-05-02T05:25:06;15.40;99.90
52947;DHT22;68773;40.400;17.260;2023-05-02T05:27:35;15.30;99.90
52947;DHT22;68773;40.400;17.260;2023-05-02T05:30:01;15.20;99.90
52947;DHT22;68773;40.400;17.260;2023-05-02T05:32:27;15.60;99.90
52947;DHT22;68773;40.400;17.260;2023-05-02T05:34:54;15.40;99.90
52947;DHT22;68773;40.400;17.260;2023-05-02T05:37:20;15.50;99.90
52947;DHT22;68773;40.400;17.260;2023-05-02T05:39:46;15.10;99.90
52947;DHT22;68773;40.400;17.260;2023-05-02T05:42:12;15.30;99.90
52947;DHT22;68773;40.400;17.260;2023-05-02T05:44:38;15.50;99.90
52947;DHT22;68773;40.400;17.260;2023-05-02T05:47:04;15.50;99.90
52947;DHT22;68773;40.400;17.260;2023-05-02T05:49:30;15.30;99.90
52947;DHT22;68773;40.400;17.260;2023-05-02T05:51:57;15.30;99.90
52947;DHT22;68773;40.400;17.260;2023-05-02T05:54:23;15.30;99.90
52947;DHT22;68773;40.400;17.260;2023-05-02T05:56:49;15.40;99.90
52947;DHT22;68773;40.400;17.260;2023-05-02T05:59:14;15.30;99.90
52947;DHT22;68773;40.400;17.260;2023-05-02T06:01:40;15.40;99.90
52947;DHT22;68773;40.400;17.260;2023-05-02T06:04:06;15.40;99.90
52947;DHT22;68773;40.400;17.260;2023-05-02T06:06:33;15.60;99.90
52947;DHT22;68773;40.400;17.260;2023-05-02T06:08:59;15.40;99.90
52947;DHT22;68773;40.400;17.260;2023-05-02T06:11:25;15.40;99.90
52947;DHT22;68773;40.400;17.260;2023-05-02T06:13:51;15.30;99.90
52947;DHT22;68773;40.400;17.260;2023-05-02T06:16:18;15.40;99.90
52947;DHT22;68773;40.400;17.260;2023-05-02T06:18:44;15.50;99.90
52947;DHT22;68773;40.400;17.260;2023-05-02T06:21:10;15.30;99.90
52947;DHT22;68773;40.400;17.260;2023-05-02T06:23:36;15.40;99.90
52947;DHT22;68773;40.400;17.260;2023-05-02T06:26:02;15.50;99.90
52947;DHT22;68773;40.400;17.260;2023-05-02T06:28:29;15.50;99.90
52947;DHT22;68773;40.400;17.260;2023-05-02T06:31:01;15.60;99.90
52947;DHT22;68773;40.400;17.260;2023-05-02T06:33:28;15.50;99.90
52947;DHT22;68773;40.400;17.260;2023-05-02T06:35:54;15.50;99.90
52947;DHT22;68773;40.400;17.260;2023-05-02T06:38:20;15.50;99.90
52947;DHT22;68773;40.400;17.260;2023-05-02T06:40:46;15.60;99.90
52947;DHT22;68773;40.400;17.260;2023-05-02T06:43:12;15.60;99.90
52947;DHT22;68773;40.400;17.260;2023-05-02T06:45:39;15.50;99.90
52947;DHT22;68773;40.400;17.260;2023-05-02T06:48:05;15.60;99.90
52947;DHT22;68773;40.400;17.260;2023-05-02T06:50:31;15.50;99.90
52947;DHT22;68773;40.400;17.260;2023-05-02T06:52:57;15.40;99.90
52947;DHT22;68773;40.400;17.260;2023-05-02T06:55:23;15.40;99.90
52947;DHT22;68773;40.400;17.260;2023-05-02T06:57:49;15.30;99.90
52947;DHT22;68773;40.400;17.260;2023-05-02T07:00:16;15.40;99.90
52947;DHT22;68773;40.400;17.260;2023-05-02T07:02:44;15.50;99.90
52947;DHT22;68773;40.400;17.260;2023-05-02T07:05:09;15.50;99.90
52947;DHT22;68773;40.400;17.260;2023-05-02T07:07:35;15.60;99.90
52947;DHT22;68773;40.400;17.260;2023-05-02T07:10:02;15.40;99.90
52947;DHT22;68773;40.400;17.260;2023-05-02T07:12:28;15.60;99.90
52947;DHT22;68773;40.400;17.260;2023-05-02T07:14:54;15.60;99.90
52947;DHT22;68773;40.400;17.260;2023-05-02T07:17:20;15.70;99.90
52947;DHT22;68773;40.400;17.260;2023-05-02T07:19:46;15.70;99.90
52947;DHT22;68773;40.400;17.260;2023-05-02T07:22:12;15.60;99.90
52947;DHT22;68773;40.400;17.260;2023-05-02T07:24:40;15.70;99.90
52947;DHT22;68773;40.400;17.260;2023-05-02T07:27:11;15.70;99.90
52947;DHT22;68773;40.400;17.260;2023-05-02T07:29:36;15.60;99.90
52947;DHT22;68773;40.400;17.260;2023-05-02T07:32:03;15.60;99.90
52947;DHT22;68773;40.400;17.260;2023-05-02T07:34:29;15.80;99.90
52947;DHT22;68773;40.400;17.260;2023-05-02T07:36:55;15.90;99.90
52947;DHT22;68773;40.400;17.260;2023-05-02T07:39:21;15.90;99.90
52947;DHT22;68773;40.400;17.260;2023-05-02T07:41:51;16.00;99.90
52947;DHT22;68773;40.400;17.260;2023-05-02T07:44:16;16.10;99.90
52947;DHT22;68773;40.400;17.260;2023-05-02T07:46:42;16.20;99.90
52947;DHT22;68773;40.400;17.260;2023-05-02T07:49:08;16.00;99.90
52947;DHT22;68773;40.400;17.260;2023-05-02T07:51:33;15.90;99.90
52947;DHT22;68773;40.400;17.260;2023-05-02T07:53:59;16.00;99.90
52947;DHT22;68773;40.400;17.260;2023-05-02T07:56:26;16.00;99.90
52947;DHT22;68773;40.400;17.260;2023-05-02T07:58:52;15.80;99.90
52947;DHT22;68773;40.400;17.260;2023-05-02T08:01:18;15.80;99.90
52947;DHT22;68773;40.400;17.260;2023-05-02T08:03:44;15.90;99.90
52947;DHT22;68773;40.400;17.260;2023-05-02T08:06:10;15.90;99.90
52947;DHT22;68773;40.400;17.260;2023-05-02T08:08:37;15.90;99.90
52947;DHT22;68773;40.400;17.260;2023-05-02T08:11:03;15.80;99.90
52947;DHT22;68773;40.400;17.260;2023-05-02T08:13:29;15.80;99.90
52947;DHT22;68773;40.400;17.260;2023-05-02T08:15:55;15.70;99.90
52947;DHT22;68773;40.400;17.260;2023-05-02T08:18:24;15.90;99.90
52947;DHT22;68773;40.400;17.260;2023-05-02T08:20:50;15.90;99.90
52947;DHT22;68773;40.400;17.260;2023-05-02T08:23:16;15.90;99.90
52947;DHT22;68773;40.400;17.260;2023-05-02T08:25:41;16.00;99.90
52947;DHT22;68773;40.400;17.260;2023-05-02T08:28:07;16.00;99.90
52947;DHT22;68773;40.400;17.260;2023-05-02T08:30:33;16.20;99.90
52947;DHT22;68773;40.400;17.260;2023-05-02T08:32:59;16.40;99.90
52947;DHT22;68773;40.400;17.260;2023-05-02T08:35:24;16.40;99.90
52947;DHT22;68773;40.400;17.260;2023-05-02T08:37:50;16.60;99.90
52947;DHT22;68773;40.400;17.260;2023-05-02T08:40:16;16.30;99.90
52947;DHT22;68773;40.400;17.260;2023-05-02T08:42:43;16.50;99.90
52947;DHT22;68773;40.400;17.260;2023-05-02T08:45:11;16.50;99.90
52947;DHT22;68773;40.400;17.260;2023-05-02T08:47:39;16.40;99.90
52947;DHT22;68773;40.400;17.260;2023-05-02T08:50:05;16.40;99.90
52947;DHT22;68773;40.400;17.260;2023-05-02T08:52:32;16.50;99.90
52947;DHT22;68773;40.400;17.260;2023-05-02T08:55:00;16.50;99.90
52947;DHT22;68773;40.400;17.260;2023-05-02T08:57:28;16.40;99.90
52947;DHT22;68773;40.400;17.260;2023-05-02T08:59:55;16.30;99.90
52947;DHT22;68773;40.400;17.260;2023-05-02T09:02:47;16.30;99.90
52947;DHT22;68773;40.400;17.260;2023-05-02T09:05:18;16.30;99.90
52947;DHT22;68773;40.400;17.260;2023-05-02T09:07:47;16.40;99.90
52947;DHT22;68773;40.400;17.260;2023-05-02T09:10:13;16.60;99.90
52947;DHT22;68773;40.400;17.260;2023-05-02T09:12:40;16.50;99.90
52947;DHT22;68773;40.400;17.260;2023-05-02T09:15:13;16.30;99.90
52947;DHT22;68773;40.400;17.260;2023-05-02T09:17:44;16.60;99.90
52947;DHT22;68773;40.400;17.260;2023-05-02T09:20:14;16.30;99.90
52947;DHT22;68773;40.400;17.260;2023-05-02T09:22:51;16.20;99.90
52947;DHT22;68773;40.400;17.260;2023-05-02T09:25:18;16.10;99.90
52947;DHT22;68773;40.400;17.260;2023-05-02T09:30:26;16.30;99.90
52947;DHT22;68773;40.400;17.260;2023-05-02T09:32:52;16.90;99.90
52947;DHT22;68773;40.400;17.260;2023-05-02T09:35:21;16.90;99.90
52947;DHT22;68773;40.400;17.260;2023-05-02T09:37:55;17.00;99.90
52947;DHT22;68773;40.400;17.260;2023-05-02T09:40:21;16.70;99.90
52947;DHT22;68773;40.400;17.260;2023-05-02T09:42:49;16.80;99.90
52947;DHT22;68773;40.400;17.260;2023-05-02T09:45:25;17.00;99.90
52947;DHT22;68773;40.400;17.260;2023-05-02T09:47:51;17.00;99.90
52947;DHT22;68773;40.400;17.260;2023-05-02T09:50:34;16.90;99.90
52947;DHT22;68773;40.400;17.260;2023-05-02T09:53:05;17.00;99.90
52947;DHT22;68773;40.400;17.260;2023-05-02T09:55:31;17.10;99.90
52947;DHT22;68773;40.400;17.260;2023-05-02T09:57:58;17.00;99.90
52947;DHT22;68773;40.400;17.260;2023-05-02T10:00:41;16.90;99.90
52947;DHT22;68773;40.400;17.260;2023-05-02T10:05:37;16.80;99.90
52947;DHT22;68773;40.400;17.260;2023-05-02T10:08:07;17.10;99.90
52947;DHT22;68773;40.400;17.260;2023-05-02T10:10:42;16.90;99.90
52947;DHT22;68773;40.400;17.260;2023-05-02T10:13:12;17.10;99.90
52947;DHT22;68773;40.400;17.260;2023-05-02T10:15:42;17.30;99.90
52947;DHT22;68773;40.400;17.260;2023-05-02T10:18:12;17.40;99.90
52947;DHT22;68773;40.400;17.260;2023-05-02T10:21:04;17.20;99.90
52947;DHT22;68773;40.400;17.260;2023-05-02T10:23:31;17.10;99.90
52947;DHT22;68773;40.400;17.260;2023-05-02T10:25:57;17.00;99.90
52947;DHT22;68773;40.400;17.260;2023-05-02T10:28:27;17.10;99.90
52947;DHT22;68773;40.400;17.260;2023-05-02T10:30:55;17.20;99.90
52947;DHT22;68773;40.400;17.260;2023-05-02T10:33:22;17.00;99.90
52947;DHT22;68773;40.400;17.260;2023-05-02T10:35:48;17.00;99.90
52947;DHT22;68773;40.400;17.260;2023-05-02T10:38:19;17.10;99.90
52947;DHT22;68773;40.400;17.260;2023-05-02T10:40:50;17.10;99.90
52947;DHT22;68773;40.400;17.260;2023-05-02T10:43:24;17.20;99.90
52947;DHT22;68773;40.400;17.260;2023-05-02T10:45:52;17.00;99.90
52947;DHT22;68773;40.400;17.260;2023-05-02T10:48:25;16.80;99.90
52947;DHT22;68773;40.400;17.260;2023-05-02T10:50:58;16.80;99.90
52947;DHT22;68773;40.400;17.260;2023-05-02T10:53:29;16.90;99.90
52947;DHT22;68773;40.400;17.260;2023-05-02T10:56:17;16.70;99.90
52947;DHT22;68773;40.400;17.260;2023-05-02T10:58:49;16.60;99.90
52947;DHT22;68773;40.400;17.260;2023-05-02T11:04:12;17.10;99.90
52947;DHT22;68773;40.400;17.260;2023-05-02T11:11:54;17.50;99.90
52947;DHT22;68773;40.400;17.260;2023-05-02T11:19:29;17.60;99.90
52947;DHT22;68773;40.400;17.260;2023-05-02T11:24:46;18.20;99.90
52947;DHT22;68773;40.400;17.260;2023-05-02T11:30:05;18.00;99.90
52947;DHT22;68773;40.400;17.260;2023-05-02T11:37:52;18.10;99.90
52947;DHT22;68773;40.400;17.260;2023-05-02T11:40:18;18.40;99.90
52947;DHT22;68773;40.400;17.260;2023-05-02T11:42:44;18.40;99.90
52947;DHT22;68773;40.400;17.260;2023-05-02T11:45:10;18.50;99.90
52947;DHT22;68773;40.400;17.260;2023-05-02T11:47:36;18.50;99.90
52947;DHT22;68773;40.400;17.260;2023-05-02T11:50:05;18.90;99.90
52947;DHT22;68773;40.400;17.260;2023-05-02T11:52:36;19.00;99.90
52947;DHT22;68773;40.400;17.260;2023-05-02T11:55:05;18.50;99.90
52947;DHT22;68773;40.400;17.260;2023-05-02T11:57:35;18.90;99.90
52947;DHT22;68773;40.400;17.260;2023-05-02T12:00:01;19.00;99.90
52947;DHT22;68773;40.400;17.260;2023-05-02T12:02:40;18.80;99.90
52947;DHT22;68773;40.400;17.260;2023-05-02T12:05:07;19.00;99.90
52947;DHT22;68773;40.400;17.260;2023-05-02T12:07:38;18.80;99.90
52947;DHT22;68773;40.400;17.260;2023-05-02T12:10:05;18.50;99.90
52947;DHT22;68773;40.400;17.260;2023-05-02T12:12:31;18.50;99.90
52947;DHT22;68773;40.400;17.260;2023-05-02T12:14:57;18.60;99.90
52947;DHT22;68773;40.400;17.260;2023-05-02T12:17:23;18.50;99.90
52947;DHT22;68773;40.400;17.260;2023-05-02T12:19:50;18.40;99.90
52947;DHT22;68773;40.400;17.260;2023-05-02T12:22:16;18.00;99.90
52947;DHT22;68773;40.400;17.260;2023-05-02T12:24:42;18.00;99.90
52947;DHT22;68773;40.400;17.260;2023-05-02T12:27:12;18.10;99.90
52947;DHT22;68773;40.400;17.260;2023-05-02T12:29:43;17.70;99.90
52947;DHT22;68773;40.400;17.260;2023-05-02T12:32:10;17.60;99.90
52947;DHT22;68773;40.400;17.260;2023-05-02T12:34:37;17.60;99.90
52947;DHT22;68773;40.400;17.260;2023-05-02T12:37:37;17.80;99.90
52947;DHT22;68773;40.400;17.260;2023-05-02T12:40:14;17.60;99.90
52947;DHT22;68773;40.400;17.260;2023-05-02T12:42:41;17.90;99.90
52947;DHT22;68773;40.400;17.260;2023-05-02T12:48:29;18.60;99.90
52947;DHT22;68773;40.400;17.260;2023-05-02T12:50:56;17.70;99.90
52947;DHT22;68773;40.400;17.260;2023-05-02T12:53:38;17.80;99.90
52947;DHT22;68773;40.400;17.260;2023-05-02T12:56:05;17.70;99.90
52947;DHT22;68773;40.400;17.260;2023-05-02T12:58:42;17.70;99.90
52947;DHT22;68773;40.400;17.260;2023-05-02T13:01:09;17.60;99.90
52947;DHT22;68773;40.400;17.260;2023-05-02T13:03:35;17.50;99.90
52947;DHT22;68773;40.400;17.260;2023-05-02T13:06:01;17.40;99.90
52947;DHT22;68773;40.400;17.260;2023-05-02T13:08:27;17.40;99.90
52947;DHT22;68773;40.400;17.260;2023-05-02T13:10:52;17.60;99.90
52947;DHT22;68773;40.400;17.260;2023-05-02T13:13:18;17.60;99.90
52947;DHT22;68773;40.400;17.260;2023-05-02T13:16:02;17.60;99.90
52947;DHT22;68773;40.400;17.260;2023-05-02T13:21:50;17.10;99.90
52947;DHT22;68773;40.400;17.260;2023-05-02T13:24:16;17.10;99.90
52947;DHT22;68773;40.400;17.260;2023-05-02T13:26:42;17.20;99.90
52947;DHT22;68773;40.400;17.260;2023-05-02T13:29:08;17.10;99.90
52947;DHT22;68773;40.400;17.260;2023-05-02T13:31:36;17.20;99.90
52947;DHT22;68773;40.400;17.260;2023-05-02T13:34:05;17.30;99.90
52947;DHT22;68773;40.400;17.260;2023-05-02T13:36:31;17.30;99.90
52947;DHT22;68773;40.400;17.260;2023-05-02T13:38:57;17.10;99.90
52947;DHT22;68773;40.400;17.260;2023-05-02T13:41:22;17.00;99.90
52947;DHT22;68773;40.400;17.260;2023-05-02T13:43:51;17.30;99.90
52947;DHT22;68773;40.400;17.260;2023-05-02T13:46:16;16.70;99.90
52947;DHT22;68773;40.400;17.260;2023-05-02T13:48:42;16.50;99.90
52947;DHT22;68773;40.400;17.260;2023-05-02T13:51:08;16.60;99.90
52947;DHT22;68773;40.400;17.260;2023-05-02T13:53:33;16.40;99.90
52947;DHT22;68773;40.400;17.260;2023-05-02T13:56:00;16.40;99.90
52947;DHT22;68773;40.400;17.260;2023-05-02T13:58:26;16.30;99.90
52947;DHT22;68773;40.400;17.260;2023-05-02T14:00:51;16.50;99.90
52947;DHT22;68773;40.400;17.260;2023-05-02T14:03:17;16.50;99.90
52947;DHT22;68773;40.400;17.260;2023-05-02T14:05:43;16.40;99.90
52947;DHT22;68773;40.400;17.260;2023-05-02T14:08:12;16.70;99.90
52947;DHT22;68773;40.400;17.260;2023-05-02T14:10:42;16.50;99.90
52947;DHT22;68773;40.400;17.260;2023-05-02T14:13:08;16.50;99.90
52947;DHT22;68773;40.400;17.260;2023-05-02T14:15:34;16.50;99.90
52947;DHT22;68773;40.400;17.260;2023-05-02T14:18:02;16.40;99.90
52947;DHT22;68773;40.400;17.260;2023-05-02T14:20:27;16.70;99.90
52947;DHT22;68773;40.400;17.260;2023-05-02T14:22:53;16.50;99.90
52947;DHT22;68773;40.400;17.260;2023-05-02T14:25:19;16.40;99.90
52947;DHT22;68773;40.400;17.260;2023-05-02T14:27:45;16.00;99.90
52947;DHT22;68773;40.400;17.260;2023-05-02T14:30:11;16.10;99.90
52947;DHT22;68773;40.400;17.260;2023-05-02T14:32:37;16.20;99.90
52947;DHT22;68773;40.400;17.260;2023-05-02T14:35:03;16.30;99.90
52947;DHT22;68773;40.400;17.260;2023-05-02T14:37:29;16.00;99.90
52947;DHT22;68773;40.400;17.260;2023-05-02T14:39:55;15.90;99.90
52947;DHT22;68773;40.400;17.260;2023-05-02T14:42:24;16.10;99.90
52947;DHT22;68773;40.400;17.260;2023-05-02T14:44:50;16.10;99.90
52947;DHT22;68773;40.400;17.260;2023-05-02T14:47:16;16.50;99.90
52947;DHT22;68773;40.400;17.260;2023-05-02T14:49:42;16.50;99.90
52947;DHT22;68773;40.400;17.260;2023-05-02T14:52:08;16.40;99.90
52947;DHT22;68773;40.400;17.260;2023-05-02T14:54:34;16.60;99.90
52947;DHT22;68773;40.400;17.260;2023-05-02T14:57:01;16.80;99.90
52947;DHT22;68773;40.400;17.260;2023-05-02T14:59:28;16.70;99.90
52947;DHT22;68773;40.400;17.260;2023-05-02T15:01:54;16.40;99.90
52947;DHT22;68773;40.400;17.260;2023-05-02T15:04:20;16.10;99.90
52947;DHT22;68773;40.400;17.260;2023-05-02T15:06:46;16.40;99.90
52947;DHT22;68773;40.400;17.260;2023-05-02T15:09:13;16.40;99.90
52947;DHT22;68773;40.400;17.260;2023-05-02T15:11:39;16.10;99.90
52947;DHT22;68773;40.400;17.260;2023-05-02T15:14:04;16.20;99.90
52947;DHT22;68773;40.400;17.260;2023-05-02T15:16:30;16.20;99.90
52947;DHT22;68773;40.400;17.260;2023-05-02T15:18:56;16.10;99.90
52947;DHT22;68773;40.400;17.260;2023-05-02T15:21:22;16.00;99.90
52947;DHT22;68773;40.400;17.260;2023-05-02T15:23:48;16.00;99.90
52947;DHT22;68773;40.400;17.260;2023-05-02T15:26:41;15.90;99.90
52947;DHT22;68773;40.400;17.260;2023-05-02T15:29:07;16.00;99.90
52947;DHT22;68773;40.400;17.260;2023-05-02T15:31:33;16.10;99.90
52947;DHT22;68773;40.400;17.260;2023-05-02T15:37:21;16.10;99.90
52947;DHT22;68773;40.400;17.260;2023-05-02T15:39:46;16.20;99.90
52947;DHT22;68773;40.400;17.260;2023-05-02T15:42:12;16.00;99.90
52947;DHT22;68773;40.400;17.260;2023-05-02T15:44:38;16.00;99.90
52947;DHT22;68773;40.400;17.260;2023-05-02T15:47:04;15.80;99.90
52947;DHT22;68773;40.400;17.260;2023-05-02T15:49:30;15.80;99.90
52947;DHT22;68773;40.400;17.260;2023-05-02T15:51:59;15.80;99.90
52947;DHT22;68773;40.400;17.260;2023-05-02T15:54:25;15.70;99.90
52947;DHT22;68773;40.400;17.260;2023-05-02T15:56:51;16.20;99.90
52947;DHT22;68773;40.400;17.260;2023-05-02T15:59:17;15.80;99.90
52947;DHT22;68773;40.400;17.260;2023-05-02T16:01:43;15.50;99.90
52947;DHT22;68773;40.400;17.260;2023-05-02T16:04:09;15.60;99.90
52947;DHT22;68773;40.400;17.260;2023-05-02T16:06:35;15.70;99.90
52947;DHT22;68773;40.400;17.260;2023-05-02T16:09:02;15.90;99.90
52947;DHT22;68773;40.400;17.260;2023-05-02T16:11:28;15.50;99.90
52947;DHT22;68773;40.400;17.260;2023-05-02T16:13:53;15.60;99.90
52947;DHT22;68773;40.400;17.260;2023-05-02T16:16:19;15.60;99.90
52947;DHT22;68773;40.400;17.260;2023-05-02T16:18:45;15.60;99.90